createdAt,value
2023-03-02T04:13:40.720Z,4.40
2023-03-02T04:19:35.469Z,4.60
2023-03-02T04:25:31.207Z,4.70
2023-03-02T04:31:32.314Z,4.60
2023-03-02T04:37:26.605Z,4.50
2023-03-02T04:43:19.942Z,4.60
2023-03-02T04:49:15.168Z,4.70
2023-03-02T04:55:09.516Z,4.20
2023-03-02T05:01:03.948Z,4.20
2023-03-02T05:06:58.954Z,4.10
2023-03-02T05:13:05.379Z,4.40
2023-03-02T05:18:58.488Z,4.10
2023-03-02T05:24:52.866Z,3.90
2023-03-02T05:30:45.877Z,3.70
2023-03-02T05:36:39.505Z,3.70
2023-03-02T05:42:35.820Z,3.60
2023-03-02T05:48:29.181Z,3.50
2023-03-02T05:54:22.224Z,3.70
2023-03-02T06:00:18.869Z,4.00
2023-03-02T06:06:13.931Z,4.10
2023-03-02T06:12:08.636Z,4.10
2023-03-02T06:18:03.476Z,4.00
2023-03-02T06:23:56.921Z,4.30
2023-03-02T06:29:50.124Z,4.30
2023-03-02T06:35:44.631Z,4.20
2023-03-02T06:41:38.108Z,4.20
2023-03-02T06:47:31.288Z,4.20
2023-03-02T06:53:26.110Z,4.20
2023-03-02T06:59:19.388Z,3.90
2023-03-02T07:05:13.632Z,3.50
2023-03-02T07:11:10.513Z,3.70
2023-03-02T07:17:05.839Z,3.90
2023-03-02T07:22:59.542Z,4.00
2023-03-02T07:28:54.323Z,4.20
2023-03-02T07:34:47.707Z,4.10
2023-03-02T07:40:42.562Z,4.20
2023-03-02T07:46:37.648Z,4.20
2023-03-02T07:52:31.849Z,4.30
2023-03-02T07:58:25.697Z,4.00
2023-03-02T08:04:20.038Z,3.60
2023-03-02T08:10:14.259Z,3.80
2023-03-02T08:16:10.207Z,3.90
2023-03-02T08:22:05.039Z,4.20
2023-03-02T08:27:58.472Z,4.30
2023-03-02T08:33:52.134Z,4.40
2023-03-02T08:39:46.714Z,4.30
2023-03-02T08:45:40.151Z,4.10
2023-03-02T08:51:33.564Z,4.00
2023-03-02T10:27:50.381Z,3.80
2023-03-02T10:34:30.941Z,4.00
2023-03-02T10:40:39.434Z,3.80
2023-03-02T10:46:42.196Z,3.80
2023-03-02T10:52:35.665Z,4.30
2023-03-02T10:58:32.464Z,4.50
2023-03-02T11:04:27.227Z,4.20
2023-03-02T11:10:22.721Z,3.80
2023-03-02T11:16:26.195Z,3.80
2023-03-02T11:22:30.795Z,3.70
2023-03-02T11:28:36.986Z,4.40
2023-03-02T11:34:42.513Z,3.90
2023-03-02T11:40:47.218Z,3.90
2023-03-02T11:46:40.531Z,4.00
2023-03-02T11:52:37.606Z,4.00
2023-03-02T11:58:33.738Z,4.00
2023-03-02T12:04:30.236Z,3.90
2023-03-02T12:10:28.477Z,4.60
2023-03-02T12:16:24.842Z,4.20
2023-03-02T12:22:29.723Z,4.40
2023-03-02T12:28:28.521Z,4.20
2023-03-02T12:34:34.405Z,4.00
2023-03-02T12:40:41.694Z,4.10
2023-03-02T12:46:39.964Z,3.90
2023-03-02T12:52:36.526Z,3.70
2023-03-02T12:58:33.987Z,4.00
2023-03-02T13:04:29.761Z,4.10
2023-03-02T13:10:30.413Z,4.30
2023-03-02T13:16:25.358Z,4.10
2023-03-02T13:22:19.340Z,3.80
2023-03-02T13:28:29.986Z,4.20
2023-03-02T13:34:25.088Z,4.70
2023-03-02T13:40:47.633Z,4.90
2023-03-02T13:46:44.178Z,4.90
2023-03-02T13:52:39.264Z,5.00
2023-03-02T13:58:38.159Z,5.10
2023-03-02T14:04:32.612Z,4.90
2023-03-02T14:10:26.288Z,4.30
2023-03-02T14:16:19.391Z,4.50
2023-03-02T14:22:13.744Z,4.40
2023-03-02T14:28:06.796Z,4.50
2023-03-02T14:33:59.882Z,4.30
2023-03-02T14:39:55.598Z,4.70
2023-03-02T14:45:48.941Z,4.90
2023-03-02T14:51:44.070Z,5.10
2023-03-02T14:57:39.160Z,5.20
2023-03-02T15:03:32.359Z,5.20
2023-03-02T15:09:25.375Z,5.10
2023-03-02T15:15:19.946Z,4.60
2023-03-02T15:21:17.551Z,4.50
2023-03-02T15:27:10.644Z,4.50
2023-03-02T15:33:05.044Z,4.40
2023-03-02T15:38:58.112Z,4.20
2023-03-02T15:44:51.167Z,4.10
2023-03-02T15:50:45.551Z,4.00
2023-03-02T15:56:43.967Z,4.00
2023-03-02T16:02:37.611Z,4.10
2023-03-02T16:08:34.242Z,4.30
2023-03-02T16:14:27.456Z,4.60
2023-03-02T16:20:20.559Z,4.60
2023-03-02T16:26:16.956Z,4.70
2023-03-02T16:32:10.152Z,4.40
2023-03-02T16:38:03.724Z,4.20
2023-03-02T16:43:59.870Z,4.50
2023-03-02T16:49:52.940Z,4.70
2023-03-02T16:55:45.985Z,4.80
2023-03-02T17:01:40.512Z,4.90
2023-03-02T17:07:33.598Z,4.80
2023-03-02T17:13:26.868Z,4.60
2023-03-02T17:19:21.593Z,4.70
2023-03-02T17:25:17.370Z,4.50
2023-03-02T17:31:10.490Z,4.70
2023-03-02T17:37:04.888Z,4.70
2023-03-02T17:42:57.973Z,4.70
2023-03-02T17:48:54.128Z,4.70
2023-03-02T17:54:48.708Z,4.80
2023-03-02T18:00:41.870Z,4.70
2023-03-02T18:06:35.559Z,4.70
2023-03-02T18:12:30.060Z,4.80
2023-03-02T18:18:24.440Z,4.80
2023-03-02T18:24:17.462Z,4.80
2023-03-02T18:30:13.210Z,4.70
2023-03-02T18:36:06.711Z,4.70
2023-03-02T18:42:01.127Z,4.80
2023-03-02T18:47:55.888Z,4.60
2023-03-02T18:53:49.714Z,4.60
2023-03-02T18:59:42.885Z,4.60
2023-03-02T19:05:37.713Z,4.50
2023-03-02T19:11:30.800Z,4.50
2023-03-02T19:17:24.931Z,4.50
2023-03-02T19:23:19.561Z,4.60
2023-03-02T19:35:41.806Z,4.60
2023-03-02T19:41:37.491Z,4.50
2023-03-02T19:47:32.257Z,4.40
2023-03-02T19:53:25.464Z,4.50
2023-03-02T19:59:20.763Z,4.40
2023-03-02T20:05:16.339Z,4.50
2023-03-02T20:11:09.332Z,4.40
2023-03-02T20:17:04.140Z,4.40
2023-03-02T20:22:57.541Z,4.30
2023-03-02T20:28:50.723Z,4.10
2023-03-02T20:34:45.569Z,4.20
2023-03-02T20:40:39.229Z,4.10
2023-03-02T20:46:36.939Z,4.00
2023-03-02T20:52:31.551Z,4.10
2023-03-02T20:58:24.826Z,3.80
2023-03-02T21:04:18.557Z,3.90
2023-03-02T21:10:17.236Z,4.00
2023-03-02T21:16:11.054Z,3.90
2023-03-02T21:22:04.077Z,3.80
2023-03-02T21:27:58.703Z,3.80
2023-03-02T21:33:52.081Z,3.80
2023-03-02T21:39:45.322Z,3.70
2023-03-02T21:45:40.459Z,3.60
2023-03-02T21:51:33.798Z,3.50
2023-03-02T21:57:26.850Z,3.60
2023-03-02T22:03:21.479Z,3.40
2023-03-02T22:09:14.473Z,3.40
2023-03-02T22:15:15.531Z,3.30
2023-03-02T22:21:28.257Z,3.10
2023-03-02T22:27:25.189Z,3.10
2023-03-02T22:33:21.168Z,3.10
2023-03-02T22:39:18.489Z,3.10
2023-03-02T22:45:15.389Z,3.10
2023-03-02T22:51:14.979Z,2.90
2023-03-02T22:57:29.903Z,2.90
2023-03-02T23:03:38.182Z,2.90
2023-03-02T23:09:34.827Z,2.80
2023-03-02T23:15:29.394Z,2.90
2023-03-02T23:21:28.407Z,2.80
2023-03-02T23:27:21.913Z,2.80
2023-03-02T23:33:16.509Z,3.00
2023-03-02T23:39:11.050Z,2.90
2023-03-02T23:45:04.370Z,2.80
2023-03-02T23:50:59.131Z,3.00
2023-03-02T23:56:52.376Z,2.80
